createdAt,value
2018-04-25T00:00:53.798Z,995.08
2018-04-25T00:01:53.791Z,995.04
2018-04-25T00:02:53.795Z,995.02
2018-04-25T00:03:53.791Z,995.05
2018-04-25T00:04:53.791Z,995.01
2018-04-25T00:05:53.788Z,995.02
2018-04-25T00:06:53.793Z,995.03
2018-04-25T00:07:53.792Z,995.02
2018-04-25T00:08:53.788Z,994.97
2018-04-25T00:09:53.786Z,994.98
2018-04-25T00:10:53.785Z,995.00
2018-04-25T00:11:53.789Z,994.95
2018-04-25T00:12:53.785Z,994.93
2018-04-25T00:13:53.784Z,994.91
2018-04-25T00:14:53.803Z,994.92
2018-04-25T00:15:53.819Z,994.91
2018-04-25T00:16:53.785Z,994.91
2018-04-25T00:17:53.783Z,994.88
2018-04-25T00:18:53.790Z,994.82
2018-04-25T00:19:53.788Z,994.83
2018-04-25T00:20:53.782Z,994.83
2018-04-25T00:21:53.819Z,994.82
2018-04-25T00:22:53.781Z,994.82
2018-04-25T00:23:53.779Z,994.80
2018-04-25T00:24:54.240Z,994.79
2018-04-25T00:25:53.782Z,994.80
2018-04-25T00:26:53.943Z,994.78
2018-04-25T00:27:53.802Z,994.77
2018-04-25T00:28:53.779Z,994.75
2018-04-25T00:29:53.776Z,994.74
2018-04-25T00:30:53.775Z,994.73
2018-04-25T00:31:53.779Z,994.74
2018-04-25T00:32:53.779Z,994.72
2018-04-25T00:33:53.804Z,994.72
2018-04-25T00:34:53.773Z,994.70
2018-04-25T00:35:53.773Z,994.72
2018-04-25T00:36:53.773Z,994.67
2018-04-25T00:37:53.772Z,994.63
2018-04-25T00:38:53.771Z,994.62
2018-04-25T00:39:53.778Z,994.60
2018-04-25T00:40:53.771Z,994.61
2018-04-25T00:41:53.769Z,994.61
2018-04-25T00:42:53.769Z,994.56
2018-04-25T00:43:53.769Z,994.53
2018-04-25T00:44:53.769Z,994.51
2018-04-25T00:45:53.781Z,994.50
2018-04-25T00:46:53.767Z,994.50
2018-04-25T00:47:53.769Z,994.45
2018-04-25T00:48:53.776Z,994.50
2018-04-25T00:49:53.764Z,994.46
2018-04-25T00:50:53.763Z,994.45
2018-04-25T00:51:53.774Z,994.44
2018-04-25T00:52:53.764Z,994.42
2018-04-25T00:53:53.765Z,994.40
2018-04-25T00:54:53.797Z,994.38
2018-04-25T00:55:54.670Z,994.43
2018-04-25T00:56:53.767Z,994.36
2018-04-25T00:57:53.759Z,994.39
2018-04-25T00:58:53.758Z,994.36
2018-04-25T00:59:53.785Z,994.34
2018-04-25T01:00:53.759Z,994.28
2018-04-25T01:01:53.785Z,994.28
2018-04-25T01:02:53.764Z,994.26
2018-04-25T01:03:53.754Z,994.23
2018-04-25T01:04:53.757Z,994.19
2018-04-25T01:05:53.761Z,994.21
2018-04-25T01:06:53.752Z,994.21
2018-04-25T01:07:53.750Z,994.19
2018-04-25T01:08:53.782Z,994.17
2018-04-25T01:09:53.750Z,994.17
2018-04-25T01:10:53.752Z,994.15
2018-04-25T01:11:53.769Z,994.15
2018-04-25T01:12:53.747Z,994.15
2018-04-25T01:13:53.745Z,994.09
2018-04-25T01:14:53.751Z,994.07
2018-04-25T01:15:53.750Z,994.08
2018-04-25T01:16:53.762Z,994.08
2018-04-25T01:17:53.741Z,994.05
2018-04-25T01:18:53.740Z,994.08
2018-04-25T01:19:53.740Z,994.02
2018-04-25T01:20:53.747Z,994.02
2018-04-25T01:21:53.738Z,994.08
2018-04-25T01:22:53.739Z,994.03
2018-04-25T01:23:53.737Z,994.05
2018-04-25T01:24:53.737Z,994.03
2018-04-25T01:25:53.738Z,994.02
2018-04-25T01:26:53.736Z,994.04
2018-04-25T01:27:53.733Z,994.00
2018-04-25T01:28:53.733Z,993.99
2018-04-25T01:29:53.730Z,993.99
2018-04-25T01:30:53.733Z,994.02
2018-04-25T01:31:53.738Z,994.02
2018-04-25T01:32:53.729Z,994.03
2018-04-25T01:33:53.730Z,994.00
2018-04-25T01:34:53.726Z,994.04
2018-04-25T01:35:53.728Z,994.02
2018-04-25T01:36:53.725Z,993.98
2018-04-25T01:37:53.723Z,994.02
2018-04-25T01:38:53.725Z,994.03
2018-04-25T01:39:53.724Z,994.04
2018-04-25T01:40:53.721Z,994.04
2018-04-25T01:41:53.721Z,994.01
2018-04-25T01:42:53.719Z,994.02
2018-04-25T01:43:53.718Z,994.02
2018-04-25T01:44:53.720Z,994.06
2018-04-25T01:45:53.719Z,994.06
2018-04-25T01:46:53.714Z,994.06
2018-04-25T01:47:53.714Z,994.05
2018-04-25T01:48:53.714Z,994.04
2018-04-25T01:49:53.711Z,994.07
2018-04-25T01:50:53.710Z,994.07
2018-04-25T01:51:53.709Z,994.08
2018-04-25T01:52:53.718Z,994.04
2018-04-25T01:53:53.707Z,994.07
2018-04-25T01:54:53.706Z,994.02
2018-04-25T01:55:53.705Z,994.06
2018-04-25T01:56:53.706Z,994.02
2018-04-25T01:57:53.703Z,994.06
2018-04-25T01:58:53.708Z,993.98
2018-04-25T01:59:53.703Z,994.00
2018-04-25T02:00:53.706Z,994.00
2018-04-25T02:01:53.699Z,993.99
2018-04-25T02:02:53.698Z,993.99
2018-04-25T02:03:53.697Z,993.97
2018-04-25T02:04:53.699Z,993.95
2018-04-25T02:05:53.698Z,993.99
2018-04-25T02:06:53.699Z,993.96
2018-04-25T02:07:53.695Z,993.96
2018-04-25T02:08:53.699Z,993.92
2018-04-25T02:09:53.693Z,993.91
2018-04-25T02:10:53.696Z,993.92
2018-04-25T02:11:53.694Z,993.95
2018-04-25T02:12:53.695Z,993.91
2018-04-25T02:13:53.690Z,993.90
2018-04-25T02:14:53.689Z,993.85
2018-04-25T02:15:53.688Z,993.82
2018-04-25T02:16:53.689Z,993.78
2018-04-25T02:17:53.687Z,993.77
2018-04-25T02:18:53.685Z,993.76
2018-04-25T02:19:53.688Z,993.73
2018-04-25T02:20:53.685Z,993.71
2018-04-25T02:21:53.684Z,993.69
2018-04-25T02:22:53.682Z,993.70
2018-04-25T02:23:53.684Z,993.69
2018-04-25T02:24:53.680Z,993.65
2018-04-25T02:25:53.680Z,993.59
2018-04-25T02:26:53.680Z,993.57
2018-04-25T02:27:53.806Z,993.58
2018-04-25T02:28:53.677Z,993.55
2018-04-25T02:29:53.675Z,993.52
2018-04-25T02:30:53.677Z,993.48
2018-04-25T02:31:53.675Z,993.52
2018-04-25T02:32:53.673Z,993.48
2018-04-25T02:33:53.672Z,993.47
2018-04-25T02:34:53.673Z,993.41
2018-04-25T02:35:53.670Z,993.42
2018-04-25T02:36:53.677Z,993.41
2018-04-25T02:37:53.667Z,993.36
2018-04-25T02:38:53.668Z,993.36
2018-04-25T02:39:53.679Z,993.37
2018-04-25T02:40:53.668Z,993.28
2018-04-25T02:41:53.662Z,993.30
2018-04-25T02:42:53.660Z,993.27
2018-04-25T02:43:53.663Z,993.32
2018-04-25T02:44:53.663Z,993.29
2018-04-25T02:45:53.678Z,993.28
2018-04-25T02:46:53.665Z,993.25
2018-04-25T02:47:53.657Z,993.22
2018-04-25T02:48:53.655Z,993.24
2018-04-25T02:49:53.653Z,993.20
2018-04-25T02:50:53.652Z,993.18
2018-04-25T02:51:53.654Z,993.12
2018-04-25T02:52:53.654Z,993.08
2018-04-25T02:53:53.661Z,993.09
2018-04-25T02:54:53.647Z,993.11
2018-04-25T02:55:53.646Z,993.10
2018-04-25T02:56:53.645Z,993.12
2018-04-25T02:57:53.642Z,993.12
2018-04-25T02:58:54.222Z,993.09
2018-04-25T02:59:53.640Z,993.09
2018-04-25T03:00:53.641Z,993.10
2018-04-25T03:01:53.636Z,993.08
2018-04-25T03:02:53.637Z,993.11
2018-04-25T03:03:53.640Z,993.10
2018-04-25T03:04:53.634Z,993.11
2018-04-25T03:05:53.645Z,993.12
2018-04-25T03:06:53.639Z,993.10
2018-04-25T03:07:53.628Z,993.02
2018-04-25T03:08:53.627Z,993.08
2018-04-25T03:09:53.625Z,993.10
2018-04-25T03:10:53.625Z,993.11
2018-04-25T03:11:53.628Z,993.10
2018-04-25T03:12:53.624Z,993.10
2018-04-25T03:13:53.622Z,993.10
2018-04-25T03:14:53.619Z,993.08
2018-04-25T03:15:53.617Z,993.04
2018-04-25T03:16:53.670Z,993.07
2018-04-25T03:17:53.613Z,993.03
2018-04-25T03:18:53.614Z,993.02
2018-04-25T03:19:53.620Z,993.04
2018-04-25T03:20:53.614Z,993.05
2018-04-25T03:21:53.611Z,993.01
2018-04-25T03:22:53.612Z,992.98
2018-04-25T03:23:53.607Z,992.96
2018-04-25T03:24:53.606Z,992.95
2018-04-25T03:25:53.602Z,992.89
2018-04-25T03:26:53.602Z,992.95
2018-04-25T03:27:53.606Z,992.95
2018-04-25T03:28:53.599Z,992.88
2018-04-25T03:29:54.591Z,992.91
2018-04-25T03:30:53.597Z,992.93
2018-04-25T03:31:53.596Z,992.92
2018-04-25T03:32:53.600Z,992.94
2018-04-25T03:33:53.591Z,992.89
2018-04-25T03:34:53.589Z,992.89
2018-04-25T03:35:53.596Z,992.90
2018-04-25T03:36:53.587Z,992.91
2018-04-25T03:37:53.584Z,992.91
2018-04-25T03:38:53.586Z,992.88
2018-04-25T03:39:53.581Z,992.91
2018-04-25T03:40:53.581Z,992.88
2018-04-25T03:41:53.583Z,992.90
2018-04-25T03:42:53.581Z,992.86
2018-04-25T03:43:53.579Z,992.87
2018-04-25T03:44:53.575Z,992.89
2018-04-25T03:45:53.577Z,992.93
2018-04-25T03:46:53.570Z,992.91
2018-04-25T03:47:53.569Z,992.93
2018-04-25T03:48:53.567Z,992.96
2018-04-25T03:49:53.565Z,992.94
2018-04-25T03:50:53.563Z,992.95
2018-04-25T03:51:53.564Z,992.94
2018-04-25T03:52:53.560Z,992.95
2018-04-25T03:53:53.559Z,992.93
2018-04-25T03:54:53.557Z,992.96
2018-04-25T03:55:53.556Z,992.97
2018-04-25T03:56:53.566Z,992.97
2018-04-25T03:57:53.553Z,993.00
2018-04-25T03:58:53.559Z,992.95
2018-04-25T03:59:53.546Z,992.99
2018-04-25T04:00:53.548Z,993.02
2018-04-25T04:01:53.928Z,993.01
2018-04-25T04:02:53.544Z,993.02
2018-04-25T04:03:53.546Z,993.00
2018-04-25T04:04:53.539Z,993.03
2018-04-25T04:05:53.541Z,993.03
2018-04-25T04:06:53.535Z,993.07
2018-04-25T04:07:53.536Z,993.07
2018-04-25T04:08:53.532Z,993.08
2018-04-25T04:09:53.535Z,993.02
2018-04-25T04:10:53.534Z,993.00
2018-04-25T04:11:53.527Z,993.01
2018-04-25T04:12:53.592Z,992.98
2018-04-25T04:13:53.523Z,992.97
2018-04-25T04:14:53.521Z,992.97
2018-04-25T04:15:53.520Z,992.95
2018-04-25T04:16:53.518Z,992.93
2018-04-25T04:17:53.519Z,992.95
2018-04-25T04:18:53.514Z,992.98
2018-04-25T04:19:53.512Z,992.91
2018-04-25T04:20:53.511Z,992.94
2018-04-25T04:21:53.515Z,992.94
2018-04-25T04:22:53.507Z,992.95
2018-04-25T04:23:53.508Z,992.99
2018-04-25T04:24:53.557Z,992.97
2018-04-25T04:25:53.504Z,992.97
2018-04-25T04:26:53.505Z,993.04
2018-04-25T04:27:53.499Z,992.99
2018-04-25T04:28:53.497Z,993.01
2018-04-25T04:29:53.496Z,992.94
2018-04-25T04:30:53.497Z,992.99
2018-04-25T04:31:53.492Z,992.92
2018-04-25T04:32:53.494Z,992.91
2018-04-25T04:33:53.533Z,992.95
2018-04-25T04:34:53.487Z,992.97
2018-04-25T04:35:53.487Z,992.97
2018-04-25T04:36:53.486Z,993.02
2018-04-25T04:37:53.482Z,993.02
2018-04-25T04:38:53.486Z,993.03
2018-04-25T04:39:53.481Z,993.01
2018-04-25T04:40:53.478Z,993.04
2018-04-25T04:41:53.475Z,993.07
2018-04-25T04:42:53.476Z,993.07
2018-04-25T04:43:53.479Z,993.05
2018-04-25T04:44:53.474Z,993.07
2018-04-25T04:45:53.475Z,993.04
2018-04-25T04:46:53.473Z,993.04
2018-04-25T04:47:53.474Z,993.01
2018-04-25T04:48:53.469Z,993.00
2018-04-25T04:49:53.464Z,993.01
2018-04-25T04:50:53.463Z,993.01
2018-04-25T04:51:53.480Z,993.08
2018-04-25T04:52:53.461Z,993.05
2018-04-25T04:53:53.459Z,993.01
2018-04-25T04:54:53.457Z,993.03
2018-04-25T04:55:53.456Z,993.02
2018-04-25T04:56:53.461Z,992.99
2018-04-25T04:57:53.454Z,992.95
2018-04-25T04:58:53.478Z,993.02
2018-04-25T04:59:53.450Z,992.97
2018-04-25T05:00:53.451Z,993.00
2018-04-25T05:01:53.745Z,992.94
2018-04-25T05:02:53.449Z,992.94
2018-04-25T05:03:53.444Z,992.91
2018-04-25T05:04:53.456Z,992.90
2018-04-25T05:05:53.443Z,992.93
2018-04-25T05:06:55.019Z,992.96
2018-04-25T05:07:53.442Z,992.96
2018-04-25T05:08:53.439Z,992.99
2018-04-25T05:09:53.442Z,992.97
2018-04-25T05:10:53.460Z,992.98
2018-04-25T05:11:53.438Z,992.97
2018-04-25T05:12:53.434Z,992.90
2018-04-25T05:13:53.434Z,992.88
2018-04-25T05:14:53.436Z,992.90
2018-04-25T05:15:53.440Z,992.93
2018-04-25T05:16:53.437Z,992.89
2018-04-25T05:17:53.433Z,992.94
2018-04-25T05:18:53.428Z,992.93
2018-04-25T05:19:53.429Z,992.90
2018-04-25T05:20:53.427Z,992.93
2018-04-25T05:21:53.427Z,992.93
2018-04-25T05:22:53.439Z,992.90
2018-04-25T05:23:53.428Z,992.88
2018-04-25T05:24:53.427Z,992.87
2018-04-25T05:25:53.423Z,992.85
2018-04-25T05:26:53.424Z,992.87
2018-04-25T05:27:53.424Z,992.83
2018-04-25T05:28:53.424Z,992.81
2018-04-25T05:29:53.424Z,992.88
2018-04-25T05:30:53.420Z,992.85
2018-04-25T05:31:53.429Z,992.79
2018-04-25T05:32:54.150Z,992.84
2018-04-25T05:33:53.419Z,992.83
2018-04-25T05:34:53.420Z,992.81
2018-04-25T05:35:53.421Z,992.79
2018-04-25T05:36:53.421Z,992.88
2018-04-25T05:37:53.420Z,992.82
2018-04-25T05:38:53.508Z,992.80
2018-04-25T05:39:53.418Z,992.83
2018-04-25T05:40:53.420Z,992.85
2018-04-25T05:41:53.431Z,992.80
2018-04-25T05:42:53.420Z,992.87
2018-04-25T05:43:53.438Z,992.81
2018-04-25T05:44:53.443Z,992.80
2018-04-25T05:45:53.465Z,992.73
2018-04-25T05:46:53.421Z,992.75
2018-04-25T05:47:53.420Z,992.75
2018-04-25T05:48:53.430Z,992.75
2018-04-25T05:49:53.420Z,992.82
2018-04-25T05:50:53.426Z,992.77
2018-04-25T05:51:53.633Z,992.77
2018-04-25T05:52:53.620Z,992.82
2018-04-25T05:53:53.424Z,992.77
2018-04-25T05:54:53.421Z,992.79
2018-04-25T05:55:53.423Z,992.72
2018-04-25T05:56:53.425Z,992.70
2018-04-25T05:57:53.485Z,992.75
2018-04-25T05:58:53.423Z,992.69
2018-04-25T05:59:53.422Z,992.72
2018-04-25T06:00:53.424Z,992.70
2018-04-25T06:01:53.423Z,992.71
2018-04-25T06:02:53.430Z,992.77
2018-04-25T06:03:53.439Z,992.78
2018-04-25T06:04:53.469Z,992.74
2018-04-25T06:05:53.440Z,992.75
2018-04-25T06:06:53.846Z,992.74
2018-04-25T06:07:53.424Z,992.74
2018-04-25T06:08:53.430Z,992.78
2018-04-25T06:09:53.430Z,992.77
2018-04-25T06:10:53.426Z,992.76
2018-04-25T06:11:53.489Z,992.77
2018-04-25T06:12:53.448Z,992.75
2018-04-25T06:13:53.427Z,992.76
2018-04-25T06:14:53.429Z,992.70
2018-04-25T06:15:53.561Z,992.70
2018-04-25T06:16:53.434Z,992.73
2018-04-25T06:17:53.501Z,992.74
2018-04-25T06:18:53.433Z,992.72
2018-04-25T06:19:53.433Z,992.73
2018-04-25T06:20:53.433Z,992.73
2018-04-25T06:21:53.435Z,992.72
2018-04-25T06:22:54.467Z,992.76
2018-04-25T06:23:53.446Z,992.74
2018-04-25T06:24:53.441Z,992.73
2018-04-25T06:25:53.515Z,992.67
2018-04-25T06:26:53.444Z,992.70
2018-04-25T06:27:53.442Z,992.70
2018-04-25T06:28:53.442Z,992.72
2018-04-25T06:29:53.443Z,992.71
2018-04-25T06:30:53.449Z,992.67
2018-04-25T06:31:53.459Z,992.62
2018-04-25T06:32:53.447Z,992.58
2018-04-25T06:33:53.498Z,992.60
2018-04-25T06:34:53.528Z,992.62
2018-04-25T06:35:53.456Z,992.63
2018-04-25T06:36:54.612Z,992.64
2018-04-25T06:37:53.546Z,992.59
2018-04-25T06:38:53.457Z,992.55
2018-04-25T06:39:53.460Z,992.57
2018-04-25T06:40:53.460Z,992.58
2018-04-25T06:41:53.475Z,992.60
2018-04-25T06:42:54.086Z,992.60
2018-04-25T06:43:53.465Z,992.56
2018-04-25T06:44:53.489Z,992.54
2018-04-25T06:45:53.469Z,992.53
2018-04-25T06:46:53.469Z,992.53
2018-04-25T06:47:53.470Z,992.51
2018-04-25T06:48:53.472Z,992.53
2018-04-25T06:49:53.472Z,992.52
2018-04-25T06:50:53.473Z,992.50
2018-04-25T06:51:53.481Z,992.47
2018-04-25T06:52:53.479Z,992.43
2018-04-25T06:53:53.479Z,992.45
2018-04-25T06:54:53.484Z,992.46
2018-04-25T06:55:53.483Z,992.44
2018-04-25T06:56:53.485Z,992.44
2018-04-25T06:57:53.487Z,992.45
2018-04-25T06:58:53.508Z,992.41
2018-04-25T06:59:53.491Z,992.37
2018-04-25T07:00:53.496Z,992.40
2018-04-25T07:01:53.496Z,992.37
2018-04-25T07:02:53.507Z,992.33
2018-04-25T07:03:53.500Z,992.23
2018-04-25T07:04:53.500Z,992.30
2018-04-25T07:05:53.502Z,992.25
2018-04-25T07:06:53.504Z,992.22
2018-04-25T07:07:53.525Z,992.22
2018-04-25T07:08:53.507Z,992.25
2018-04-25T07:09:53.532Z,992.18
2018-04-25T07:10:53.528Z,992.18
2018-04-25T07:11:53.513Z,992.20
2018-04-25T07:12:53.518Z,992.22
2018-04-25T07:13:53.526Z,992.17
2018-04-25T07:14:53.525Z,992.19
2018-04-25T07:15:53.519Z,992.15
2018-04-25T07:16:53.523Z,992.15
2018-04-25T07:17:53.538Z,992.07
2018-04-25T07:18:53.525Z,992.04
2018-04-25T07:19:53.527Z,992.02
2018-04-25T07:20:53.531Z,992.03
2018-04-25T07:21:53.532Z,992.01
2018-04-25T07:22:53.535Z,992.04
2018-04-25T07:23:53.566Z,991.99
2018-04-25T07:24:53.537Z,991.97
2018-04-25T07:25:53.540Z,991.94
2018-04-25T07:26:53.540Z,992.00
2018-04-25T07:27:53.548Z,991.98
2018-04-25T07:28:53.553Z,991.95
2018-04-25T07:29:53.545Z,991.93
2018-04-25T07:30:53.554Z,991.91
2018-04-25T07:31:53.558Z,991.88
2018-04-25T07:32:53.558Z,991.83
2018-04-25T07:33:53.581Z,991.87
2018-04-25T07:34:53.557Z,991.88
2018-04-25T07:35:53.732Z,991.95
2018-04-25T07:36:53.564Z,991.88
2018-04-25T07:37:53.562Z,991.86
2018-04-25T07:38:53.564Z,991.90
2018-04-25T07:39:53.570Z,991.92
2018-04-25T07:40:53.567Z,991.90
2018-04-25T07:41:53.610Z,991.68
2018-04-25T07:42:53.574Z,991.91
2018-04-25T07:43:53.578Z,991.85
2018-04-25T07:44:53.577Z,991.78
2018-04-25T07:45:53.592Z,991.80
2018-04-25T07:46:53.585Z,991.87
2018-04-25T07:47:53.583Z,991.80
2018-04-25T07:48:53.585Z,991.89
2018-04-25T07:49:53.587Z,991.88
2018-04-25T07:50:53.616Z,991.95
2018-04-25T07:51:53.591Z,991.98
2018-04-25T07:52:53.594Z,991.94
2018-04-25T07:53:53.594Z,991.92
2018-04-25T07:54:53.602Z,991.94
2018-04-25T07:55:53.604Z,991.97
2018-04-25T07:56:53.604Z,991.92
2018-04-25T07:57:53.636Z,991.84
2018-04-25T07:58:53.609Z,991.91
2018-04-25T07:59:53.610Z,991.77
2018-04-25T08:00:53.615Z,991.81
2018-04-25T08:01:53.615Z,991.85
2018-04-25T08:02:53.617Z,991.83
2018-04-25T08:03:53.618Z,991.94
2018-04-25T08:04:53.639Z,991.90
2018-04-25T08:05:53.704Z,991.87
2018-04-25T08:06:54.136Z,991.87
2018-04-25T08:07:53.629Z,991.86
2018-04-25T08:08:53.661Z,991.87
2018-04-25T08:09:53.635Z,991.85
2018-04-25T08:10:53.642Z,991.86
2018-04-25T08:11:53.649Z,991.90
2018-04-25T08:12:53.648Z,991.86
2018-04-25T08:13:53.645Z,991.85
2018-04-25T08:14:53.695Z,991.85
2018-04-25T08:15:53.677Z,991.78
2018-04-25T08:16:53.669Z,991.93
2018-04-25T08:17:53.663Z,991.88
2018-04-25T08:18:53.658Z,991.92
2018-04-25T08:19:53.661Z,991.87
2018-04-25T08:20:53.671Z,991.83
2018-04-25T08:21:53.667Z,991.81
2018-04-25T08:22:53.672Z,991.81
2018-04-25T08:23:53.678Z,991.86
2018-04-25T08:24:53.687Z,991.83
2018-04-25T08:25:53.685Z,991.85
2018-04-25T08:26:53.686Z,991.86
2018-04-25T08:27:53.687Z,991.92
2018-04-25T08:28:53.692Z,991.94
2018-04-25T08:29:53.700Z,991.90
2018-04-25T08:30:53.697Z,991.91
2018-04-25T08:31:53.701Z,991.88
2018-04-25T08:32:53.715Z,991.92
2018-04-25T08:33:53.821Z,992.08
2018-04-25T08:34:53.778Z,991.95
2018-04-25T08:35:53.726Z,992.01
2018-04-25T08:36:53.717Z,992.05
2018-04-25T08:37:54.623Z,992.06
2018-04-25T08:38:53.731Z,991.99
2018-04-25T08:39:53.731Z,992.08
2018-04-25T08:40:53.757Z,992.13
2018-04-25T08:41:53.734Z,992.11
2018-04-25T08:42:53.748Z,992.02
2018-04-25T08:43:53.746Z,992.05
2018-04-25T08:44:53.880Z,992.02
2018-04-25T08:45:56.739Z,992.03
2018-04-25T08:46:54.753Z,992.05
2018-04-25T08:47:55.582Z,992.02
2018-04-25T08:48:53.766Z,992.01
2018-04-25T08:49:53.777Z,992.00
2018-04-25T08:50:53.768Z,992.04
2018-04-25T08:51:53.767Z,992.01
2018-04-25T08:52:57.132Z,992.07
2018-04-25T08:53:53.848Z,992.02
2018-04-25T08:54:53.785Z,991.99
2018-04-25T08:55:53.781Z,992.08
2018-04-25T08:56:53.785Z,992.05
2018-04-25T08:57:53.919Z,992.07
2018-04-25T08:58:53.793Z,991.96
2018-04-25T08:59:53.796Z,992.01
2018-04-25T09:00:53.819Z,992.12
2018-04-25T09:01:53.804Z,992.14
2018-04-25T09:02:53.813Z,992.10
2018-04-25T09:03:53.837Z,992.09
2018-04-25T09:04:53.822Z,992.10
2018-04-25T09:05:53.853Z,992.05
2018-04-25T09:06:53.870Z,992.01
2018-04-25T09:07:53.835Z,992.02
2018-04-25T09:08:55.133Z,992.03
2018-04-25T09:09:53.841Z,992.11
2018-04-25T09:10:53.963Z,992.03
2018-04-25T09:11:53.929Z,992.02
2018-04-25T09:12:53.923Z,992.14
2018-04-25T09:13:53.863Z,992.12
2018-04-25T09:14:53.874Z,992.14
2018-04-25T09:15:53.875Z,992.13
2018-04-25T09:16:53.883Z,992.11
2018-04-25T09:17:53.885Z,992.11
2018-04-25T09:18:53.958Z,992.12
2018-04-25T09:19:53.896Z,992.17
2018-04-25T09:20:53.903Z,992.18
2018-04-25T09:21:53.911Z,992.27
2018-04-25T09:22:53.964Z,992.27
2018-04-25T09:23:53.925Z,992.33
2018-04-25T09:24:53.922Z,992.18
2018-04-25T09:25:53.928Z,992.24
2018-04-25T09:26:54.012Z,992.17
2018-04-25T09:27:53.939Z,992.26
2018-04-25T09:28:53.943Z,992.14
2018-04-25T09:29:53.945Z,992.06
2018-04-25T09:30:53.954Z,992.12
2018-04-25T09:31:53.961Z,992.13
2018-04-25T09:32:53.993Z,992.12
2018-04-25T09:33:53.972Z,992.05
2018-04-25T09:34:53.971Z,992.09
2018-04-25T09:35:53.984Z,992.02
2018-04-25T09:36:53.986Z,992.04
2018-04-25T09:37:53.980Z,992.10
2018-04-25T09:38:54.093Z,992.08
2018-04-25T09:39:53.994Z,992.11
2018-04-25T09:40:54.249Z,992.24
2018-04-25T09:41:54.000Z,992.04
2018-04-25T09:42:54.043Z,992.15
2018-04-25T09:43:54.010Z,992.19
2018-04-25T09:44:54.609Z,992.06
2018-04-25T09:45:54.123Z,992.17
2018-04-25T09:46:54.028Z,992.08
2018-04-25T09:47:54.028Z,992.25
2018-04-25T09:48:54.068Z,992.16
2018-04-25T09:49:54.042Z,992.17
2018-04-25T09:50:54.075Z,992.27
2018-04-25T09:51:54.133Z,992.30
2018-04-25T09:52:54.104Z,992.24
2018-04-25T09:53:54.098Z,992.23
2018-04-25T09:54:55.596Z,992.27
2018-04-25T09:55:54.065Z,992.28
2018-04-25T09:56:54.095Z,992.30
2018-04-25T09:57:54.121Z,992.29
2018-04-25T09:58:54.159Z,992.32
2018-04-25T09:59:54.089Z,992.34
2018-04-25T10:00:54.395Z,992.36
2018-04-25T10:01:54.092Z,992.36
2018-04-25T10:02:54.097Z,992.25
2018-04-25T10:03:54.160Z,992.31
2018-04-25T10:04:54.335Z,992.33
2018-04-25T10:05:54.115Z,992.40
2018-04-25T10:06:54.119Z,992.33
2018-04-25T10:07:54.541Z,992.41
2018-04-25T10:08:54.284Z,992.47
2018-04-25T10:09:54.136Z,992.38
2018-04-25T10:10:54.193Z,992.47
2018-04-25T10:11:56.267Z,992.54
2018-04-25T10:12:54.143Z,992.46
2018-04-25T10:13:54.149Z,992.45
2018-04-25T10:14:54.157Z,992.40
2018-04-25T10:15:54.159Z,992.40
2018-04-25T10:16:54.162Z,992.50
2018-04-25T10:17:54.173Z,992.39
2018-04-25T10:18:54.172Z,992.43
2018-04-25T10:19:54.181Z,992.39
2018-04-25T10:20:54.203Z,992.47
2018-04-25T10:21:54.213Z,992.42
2018-04-25T10:22:54.191Z,992.37
2018-04-25T10:23:54.224Z,992.32
2018-04-25T10:24:54.204Z,992.29
2018-04-25T10:25:55.767Z,992.30
2018-04-25T10:26:54.214Z,992.39
2018-04-25T10:27:54.215Z,992.38
2018-04-25T10:28:54.259Z,992.25
2018-04-25T10:29:54.227Z,992.24
2018-04-25T10:30:54.257Z,992.25
2018-04-25T10:31:54.312Z,992.28
2018-04-25T10:32:54.249Z,992.22
2018-04-25T10:33:54.307Z,992.29
2018-04-25T10:34:54.256Z,992.26
2018-04-25T10:35:54.261Z,992.25
2018-04-25T10:36:54.261Z,992.30
2018-04-25T10:37:54.265Z,992.31
2018-04-25T10:38:54.276Z,992.39
2018-04-25T10:39:54.299Z,992.39
2018-04-25T10:40:54.443Z,992.36
2018-04-25T10:41:54.318Z,992.32
2018-04-25T10:42:54.291Z,992.33
2018-04-25T10:43:54.301Z,992.35
2018-04-25T10:44:54.302Z,992.41
2018-04-25T10:45:54.401Z,992.43
2018-04-25T10:46:54.403Z,992.50
2018-04-25T10:47:54.320Z,992.47
2018-04-25T10:48:54.359Z,992.40
2018-04-25T10:49:54.332Z,992.37
2018-04-25T10:50:54.348Z,992.37
2018-04-25T10:51:54.337Z,992.38
2018-04-25T10:52:54.341Z,992.41
2018-04-25T10:53:54.346Z,992.34
2018-04-25T10:54:54.352Z,992.32
2018-04-25T10:55:54.564Z,992.31
2018-04-25T10:56:54.382Z,992.31
2018-04-25T10:57:54.372Z,992.26
2018-04-25T10:58:54.375Z,992.29
2018-04-25T10:59:54.460Z,992.35
2018-04-25T11:00:54.388Z,992.36
2018-04-25T11:01:54.397Z,992.20
2018-04-25T11:02:54.401Z,992.26
2018-04-25T11:03:54.956Z,992.19
2018-04-25T11:04:55.136Z,992.24
2018-04-25T11:05:54.421Z,992.27
2018-04-25T11:06:54.436Z,992.25
2018-04-25T11:07:54.432Z,992.17
2018-04-25T11:08:54.437Z,992.09
2018-04-25T11:09:54.439Z,992.14
2018-04-25T11:10:54.450Z,992.26
2018-04-25T11:11:54.939Z,992.33
2018-04-25T11:12:54.475Z,992.27
2018-04-25T11:13:54.464Z,992.32
2018-04-25T11:14:54.468Z,992.36
2018-04-25T11:15:54.499Z,992.53
2018-04-25T11:16:54.563Z,992.46
2018-04-25T11:17:54.490Z,992.40
2018-04-25T11:18:54.486Z,992.38
2018-04-25T11:19:54.495Z,992.49
2018-04-25T11:20:54.507Z,992.42
2018-04-25T11:21:55.138Z,992.37
2018-04-25T11:22:54.508Z,992.39
2018-04-25T11:23:54.513Z,992.47
2018-04-25T11:24:54.519Z,992.42
2018-04-25T11:25:54.523Z,992.45
2018-04-25T11:26:54.533Z,992.47
2018-04-25T11:27:54.532Z,992.53
2018-04-25T11:28:54.536Z,992.46
2018-04-25T11:29:54.539Z,992.66
2018-04-25T11:30:54.543Z,992.63
2018-04-25T11:31:54.620Z,992.61
2018-04-25T11:32:54.555Z,992.63
2018-04-25T11:33:54.560Z,992.75
2018-04-25T11:34:54.562Z,992.71
2018-04-25T11:35:54.570Z,992.67
2018-04-25T11:36:54.576Z,992.66
2018-04-25T11:37:54.572Z,992.72
2018-04-25T11:38:57.144Z,992.74
2018-04-25T11:39:54.583Z,992.70
2018-04-25T11:40:54.588Z,992.66
2018-04-25T11:41:54.594Z,992.75
2018-04-25T11:42:55.491Z,992.74
2018-04-25T11:43:54.600Z,992.75
2018-04-25T11:44:54.615Z,992.76
2018-04-25T11:45:56.148Z,992.75
2018-04-25T11:46:54.618Z,992.76
2018-04-25T11:47:54.621Z,992.71
2018-04-25T11:48:54.630Z,992.78
2018-04-25T11:49:55.172Z,992.79
2018-04-25T11:50:55.533Z,992.80
2018-04-25T11:51:54.637Z,992.76
2018-04-25T11:52:54.640Z,992.67
2018-04-25T11:53:54.668Z,992.61
2018-04-25T11:54:54.649Z,992.62
2018-04-25T11:55:54.655Z,992.65
2018-04-25T11:56:55.135Z,992.60
2018-04-25T11:57:54.672Z,992.73
2018-04-25T11:58:55.688Z,992.70
2018-04-25T11:59:54.674Z,992.83
2018-04-25T12:00:54.677Z,992.82
2018-04-25T12:01:54.919Z,992.86
2018-04-25T12:02:54.857Z,992.83
2018-04-25T12:03:54.691Z,992.75
2018-04-25T12:04:54.705Z,992.70
2018-04-25T12:05:54.700Z,992.60
2018-04-25T12:06:55.198Z,992.61
2018-04-25T12:07:54.711Z,992.64
2018-04-25T12:08:54.950Z,992.65
2018-04-25T12:09:54.718Z,992.67
2018-04-25T12:10:54.725Z,992.64
2018-04-25T12:11:54.728Z,992.73
2018-04-25T12:12:55.657Z,992.61
2018-04-25T12:13:54.774Z,992.68
2018-04-25T12:14:54.742Z,992.73
2018-04-25T12:15:54.746Z,992.58
2018-04-25T12:16:54.751Z,992.70
2018-04-25T12:17:54.760Z,992.75
2018-04-25T12:18:54.765Z,992.68
2018-04-25T12:19:54.771Z,992.70
2018-04-25T12:20:54.769Z,992.69
2018-04-25T12:21:54.773Z,992.72
2018-04-25T12:22:55.659Z,992.60
2018-04-25T12:23:54.816Z,992.61
2018-04-25T12:24:54.788Z,992.57
2018-04-25T12:25:54.793Z,992.58
2018-04-25T12:26:54.818Z,992.54
2018-04-25T12:27:54.802Z,992.51
2018-04-25T12:28:54.810Z,992.55